»·PEaware :: N1227U KSMX-KBFL

N1227U :: KSMX-KBFL

FLIGHT INFORMATION

Flight Status: Arrived
Operator: Privately registered:
United States
More flights under this callsign
Pilot: Robert M. (36655)
Aircraft: CESSNA 172 SKYHAWK
(C172)
More flights by this aircraft type
Origin: KSMX Santa Maria Pub/Capt Hancock
United States
Destination: KBFL Meadows
United States
More flights between these airports :: More routes between these airports
Route:
File this flight plan on PilotEdge
Remarks: PRACTING CAT 5
Altitude:
(Current/Filed)
7,500ft
Speed:
(Current/Filed)
115kts
Departed: 29-Oct-21 02:54 PM
Arrived: 29-Oct-21 03:39 PM
Distance/Time
Traveled:
76nm/0:45
Distance/Time
To Go:
Arrived

Flight Plot

Page will automatically refresh every two minutes.


Map Options




Map Legend


Flown Route
Filed Route
Departure Airport
Arrival Airport
Navaid (VOR, NDB)
Fix

Horizontal Profiles

Position Reports

Time Latitude Longitude Heading Altitude Ground
Speed
29-Oct-21 14:40 34.897828 -120.447608 46 252ft 0kts
29-Oct-21 14:41 34.897828 -120.447608 46 252ft 0kts
29-Oct-21 14:42 34.897828 -120.447608 46 252ft 0kts
29-Oct-21 14:43 34.897828 -120.447608 46 252ft 0kts
29-Oct-21 14:44 34.897935 -120.447458 130 252ft 0kts
29-Oct-21 14:45 34.897860 -120.447392 140 252ft 0kts
29-Oct-21 14:46 34.897608 -120.447120 138 253ft 0kts
29-Oct-21 14:47 34.897608 -120.447120 138 253ft 0kts
29-Oct-21 14:48 34.896682 -120.447862 197 254ft 7kts
29-Oct-21 14:49 34.893433 -120.445245 199 264ft 0kts
29-Oct-21 14:50 34.893433 -120.445245 199 264ft 0kts
29-Oct-21 14:51 34.893433 -120.445245 199 264ft 0kts
29-Oct-21 14:52 34.893827 -120.447178 314 262ft 38kts
29-Oct-21 14:53 34.907471 -120.462939 319 760ft 81kts
29-Oct-21 14:54 34.926880 -120.457912 38 1414ft 89kts
29-Oct-21 14:55 34.942906 -120.436786 70 2222ft 71kts
29-Oct-21 14:56 34.955788 -120.412230 48 2684ft 95kts
29-Oct-21 14:57 34.974289 -120.392210 33 3358ft 89kts
29-Oct-21 14:58 34.989856 -120.367376 74 3936ft 93kts
29-Oct-21 14:59 35.001359 -120.338167 32 4514ft 97kts
29-Oct-21 15:00 35.023982 -120.319178 74 4751ft 119kts
29-Oct-21 15:01 35.029499 -120.280751 81 5179ft 109kts
29-Oct-21 15:02 35.034041 -120.244989 80 5680ft 104kts
29-Oct-21 15:03 35.038541 -120.210659 81 6182ft 101kts
29-Oct-21 15:04 35.043033 -120.177131 81 6684ft 97kts
29-Oct-21 15:05 35.047502 -120.145120 81 7180ft 92kts
29-Oct-21 15:06 35.051345 -120.112440 83 7522ft 104kts
29-Oct-21 15:07 35.056392 -120.076514 77 7747ft 111kts
29-Oct-21 15:08 35.064375 -120.037002 76 7762ft 123kts
29-Oct-21 15:09 35.072752 -119.996153 76 7775ft 125kts
29-Oct-21 15:10 35.081307 -119.954549 76 7773ft 127kts
29-Oct-21 15:11 35.088879 -119.912449 79 7771ft 126kts
29-Oct-21 15:12 35.095203 -119.869872 80 7777ft 128kts
29-Oct-21 15:13 35.107431 -119.829449 63 7764ft 126kts
29-Oct-21 15:14 35.123418 -119.791750 62 7772ft 125kts
29-Oct-21 15:15 35.139711 -119.753936 62 7773ft 126kts
29-Oct-21 15:16 35.156092 -119.716098 62 7773ft 126kts
29-Oct-21 15:17 35.172711 -119.677806 62 7772ft 127kts
29-Oct-21 15:18 35.189302 -119.639508 62 7767ft 125kts
29-Oct-21 15:19 35.205025 -119.603033 62 7875ft 122kts
29-Oct-21 15:20 35.221129 -119.565604 62 7879ft 125kts
29-Oct-21 15:21 35.237375 -119.527840 62 7879ft 126kts
29-Oct-21 15:22 35.254374 -119.488288 62 7620ft 135kts
29-Oct-21 15:23 35.271757 -119.447662 63 6692ft 116kts
29-Oct-21 15:24 35.283335 -119.413423 68 6347ft 110kts
29-Oct-21 15:25 35.294930 -119.377599 68 5805ft 116kts
29-Oct-21 15:26 35.309244 -119.341862 62 5207ft 117kts
29-Oct-21 15:27 35.324445 -119.305739 61 4609ft 120kts
29-Oct-21 15:28 35.339674 -119.270321 61 3975ft 104kts
29-Oct-21 15:29 35.353247 -119.238349 61 3386ft 116kts
29-Oct-21 15:30 35.365703 -119.208411 61 2762ft 80kts
29-Oct-21 15:31 35.377410 -119.181846 56 2626ft 95kts
29-Oct-21 15:32 35.392442 -119.154212 53 2220ft 123kts
29-Oct-21 15:33 35.409285 -119.121882 59 1440ft 99kts
29-Oct-21 15:34 35.422271 -119.095890 68 1441ft 95kts
29-Oct-21 15:35 35.422380 -119.063707 132 1519ft 96kts
29-Oct-21 15:36 35.409518 -119.038817 70 1341ft 84kts
29-Oct-21 15:37 35.424768 -119.045284 313 725ft 68kts
29-Oct-21 15:38 35.435515 -119.058084 344 496ft 17kts
29-Oct-21 15:39 35.436371 -119.057431 88 494ft 0kts
29-Oct-21 15:40 35.433306 -119.053282 138 485ft 33kts
29-Oct-21 15:41 35.430239 -119.047034 121 485ft 24kts
29-Oct-21 15:42 35.429151 -119.045905 132 481ft 0kts

Navigation Log

Ident Type
Flight plan parsing failed, navigation log unavailable